Time;durP1;ratioP1;P1;durP2;ratioP2;P2;SDS_P1;SDS_P2;PMS_P1;PMS_P2;Temp;Humidity;BMP_temperature;BMP_pressure;BME280_temperature;BME280_humidity;BME280_pressure;Samples;Min_cycle;Max_cycle;Signal;HPM_P1;HPM_P2
2023/01/06 00:01:18;;;;;;;10.35;6.13;;;12.50;99.90;;;12.70;100.00;101603.16;5093774;28;20044;-74
2023/01/06 00:03:50;;;;;;;9.68;6.65;;;12.40;99.90;;;12.62;100.00;101577.50;5093768;28;20051;-69
2023/01/06 00:06:21;;;;;;;10.65;6.45;;;12.50;99.90;;;12.69;100.00;101590.81;5093778;28;20051;-70
2023/01/06 00:08:50;;;;;;;11.63;6.97;;;12.50;99.90;;;12.07;100.00;101469.72;5093428;28;20497;-71
2023/01/06 00:11:19;;;;;;;11.57;6.75;;;12.50;99.90;;;12.67;100.00;101589.91;5093310;28;20082;-71
2023/01/06 00:13:48;;;;;;;13.50;7.15;;;12.50;99.90;;;12.76;100.00;101593.41;5093046;28;20048;-70
2023/01/06 00:16:18;;;;;;;17.30;7.35;;;12.50;99.90;;;12.76;100.00;101582.78;5093249;28;20067;-71
2023/01/06 00:18:47;;;;;;;11.60;7.60;;;12.50;99.90;;;12.85;100.00;101596.06;5093360;28;20504;-69
2023/01/06 00:21:16;;;;;;;16.55;7.72;;;12.60;99.90;;;12.75;99.89;101576.63;5093237;28;20039;-71
2023/01/06 00:23:44;;;;;;;20.63;7.97;;;12.60;99.90;;;12.58;100.00;101555.41;5093479;28;20514;-70
2023/01/06 00:26:13;;;;;;;12.77;7.15;;;12.50;99.90;;;12.77;100.00;101584.59;5075308;28;20135;-74
2023/01/06 00:28:43;;;;;;;12.52;6.97;;;12.50;99.90;;;12.77;100.00;101581.94;5093132;28;20417;-72
2023/01/06 00:31:14;;;;;;;14.10;7.32;;;12.50;99.90;;;12.79;100.00;101582.81;5075285;28;20093;-72
2023/01/06 00:33:43;;;;;;;15.52;7.30;;;12.60;99.90;;;12.52;99.99;101538.63;5093178;28;20071;-72
2023/01/06 00:36:13;;;;;;;14.75;7.53;;;12.50;99.90;;;12.06;100.00;101531.59;5075158;28;20036;-72
2023/01/06 00:38:43;;;;;;;15.18;7.18;;;12.50;99.90;;;12.70;100.00;101573.06;5093412;28;20078;-72
2023/01/06 00:44:02;;;;;;;12.00;6.85;;;12.50;99.90;;;12.67;100.00;101565.13;5093570;28;20048;-72
2023/01/06 00:46:33;;;;;;;13.32;6.95;;;12.50;99.90;;;12.67;99.97;101566.03;5092044;28;20048;-73
2023/01/06 00:49:03;;;;;;;12.77;6.53;;;12.40;99.90;;;12.73;100.00;101550.97;5075136;28;20083;-72
2023/01/06 00:51:35;;;;;;;12.52;7.15;;;12.50;99.90;;;12.75;100.00;101565.13;5075096;28;20144;-72
2023/01/06 00:54:03;;;;;;;14.85;6.55;;;12.50;99.90;;;12.73;99.46;101549.19;5092881;28;20397;-72
2023/01/06 00:56:32;;;;;;;11.50;6.38;;;12.50;99.90;;;11.78;99.22;101388.44;5093177;28;20044;-73
2023/01/06 00:59:03;;;;;;;10.70;6.82;;;12.40;99.90;;;12.59;99.34;101528.00;5093092;28;20044;-73
2023/01/06 01:01:31;;;;;;;10.25;6.47;;;12.50;99.90;;;12.72;99.38;101554.53;5093158;28;20070;-72
2023/01/06 01:04:00;;;;;;;11.57;6.68;;;12.50;99.90;;;12.67;99.22;101542.13;5092909;28;20051;-73
2023/01/06 01:06:28;;;;;;;10.27;6.38;;;12.50;99.90;;;12.61;99.21;101546.56;5092787;28;20571;-73
2023/01/06 01:08:59;;;;;;;11.30;6.25;;;12.40;99.90;;;12.63;99.40;101540.38;5093050;28;20040;-72
2023/01/06 01:14:18;;;;;;;14.00;6.93;;;12.50;99.90;;;12.73;98.94;101541.22;5092784;28;20040;-72
2023/01/06 01:16:47;;;;;;;12.13;6.53;;;12.50;99.90;;;12.48;99.03;101511.22;5074919;28;20075;-73
2023/01/06 01:19:17;;;;;;;8.82;6.18;;;12.50;99.90;;;12.73;98.77;101535.03;5092942;28;20076;-72
2023/01/06 01:21:45;;;;;;;9.68;6.97;;;12.50;99.90;;;12.70;98.54;101542.13;5074861;28;20401;-72
2023/01/06 01:24:15;;;;;;;10.40;6.40;;;12.50;99.90;;;12.57;98.50;101518.25;5093185;28;20180;-72
2023/01/06 01:26:43;;;;;;;11.27;6.80;;;12.40;99.90;;;12.72;98.36;101531.50;5094980;28;20053;-73
2023/01/06 01:29:13;;;;;;;10.57;6.45;;;12.40;99.90;;;12.59;98.23;101517.38;5096906;28;20042;-73
2023/01/06 01:31:43;;;;;;;12.10;6.28;;;12.50;99.90;;;12.57;98.50;101518.25;5078127;28;20078;-72
2023/01/06 01:34:15;;;;;;;12.88;6.88;;;12.50;99.90;;;12.61;98.43;101507.66;5096483;28;20051;-72
2023/01/06 01:36:44;;;;;;;;;;;12.40;99.90;;;12.56;98.81;101517.38;5096739;28;20063;-72
2023/01/06 01:39:15;;;;;;;9.80;6.05;;;12.40;99.90;;;12.60;98.41;101523.59;5078284;28;19927;-72
2023/01/06 01:41:44;;;;;;;;;;;12.40;99.90;;;12.42;98.33;101497.06;5096593;28;20048;-72
2023/01/06 01:44:54;;;;;;;15.43;6.93;;;12.30;99.90;;;12.51;98.17;101491.72;5096386;28;20011;-73
2023/01/06 01:47:38;;;;;;;13.82;6.72;;;12.30;99.90;;;12.43;98.18;101466.97;5096332;28;20047;-72
2023/01/06 01:50:19;;;;;;;11.35;7.03;;;12.30;99.90;;;12.47;97.93;101466.09;5096209;28;20100;-72
2023/01/06 01:52:53;;;;;;;8.35;5.80;;;12.30;99.90;;;12.57;97.63;101479.34;5096219;28;20390;-73
2023/01/06 01:55:22;;;;;;;9.38;6.25;;;12.30;99.90;;;12.51;97.62;101476.69;5077974;28;20040;-73
2023/01/06 01:57:56;;;;;;;14.82;6.30;;;12.40;99.90;;;12.47;97.67;101474.94;5096061;28;20040;-72
2023/01/06 02:00:24;;;;;;;9.45;5.20;;;12.30;99.90;;;12.43;97.25;101459.03;5096148;28;20044;-73
2023/01/06 02:02:56;;;;;;;9.73;5.80;;;12.30;99.90;;;12.01;97.18;101403.41;5096052;28;20081;-72
2023/01/06 02:05:27;;;;;;;13.70;5.70;;;12.20;99.90;;;12.43;97.08;101457.25;5096066;28;20028;-72
2023/01/06 02:07:57;;;;;;;12.38;5.88;;;12.20;99.90;;;12.41;96.77;101471.41;5096008;28;20052;-72
2023/01/06 02:10:25;;;;;;;10.63;5.63;;;12.20;99.90;;;12.38;96.51;101464.34;5095518;28;20493;-72
2023/01/06 02:12:59;;;;;;;8.05;5.30;;;12.20;99.90;;;12.38;96.29;101459.06;5077725;28;20138;-72
2023/01/06 02:15:32;;;;;;;9.00;5.15;;;12.20;99.90;;;12.39;96.09;101465.22;5077163;28;20064;-72
2023/01/06 02:18:38;;;;;;;8.15;5.68;;;12.20;99.90;;;12.38;95.83;101451.09;5077334;28;20051;-73
2023/01/06 02:21:39;;;;;;;9.57;5.32;;;12.20;99.90;;;12.31;95.86;101457.28;5095734;28;20564;-72
2023/01/06 02:24:56;;;;;;;10.45;5.32;;;12.20;99.90;;;12.37;95.78;101459.03;5077464;28;20551;-72
2023/01/06 02:28:15;;;;;;;9.05;5.45;;;12.20;99.90;;;12.43;95.62;101457.25;5077439;28;20424;-72
2023/01/06 02:31:53;;;;;;;11.52;6.30;;;12.20;99.90;;;12.42;95.19;101454.63;5070344;28;20059;-73
2023/01/06 02:34:38;;;;;;;8.90;5.60;;;12.20;99.90;;;12.16;95.18;101388.38;5035896;28;20140;-72
2023/01/06 02:37:19;;;;;;;10.07;4.80;;;12.20;99.90;;;12.40;95.04;101421.91;5035640;28;20080;-73
2023/01/06 02:40:06;;;;;;;11.45;5.22;;;12.20;99.90;;;12.44;95.27;101431.63;5063391;28;20047;-73
2023/01/06 02:42:44;;;;;;;7.00;5.40;;;12.20;99.90;;;12.40;94.79;101413.94;5077144;28;20405;-72
2023/01/06 02:45:21;;;;;;;8.38;5.43;;;12.20;99.90;;;12.36;94.86;101397.16;5094936;28;20497;-73
2023/01/06 02:48:01;;;;;;;10.75;5.55;;;12.20;99.90;;;12.36;94.73;101399.81;5077040;28;20056;-72
2023/01/06 02:50:40;;;;;;;11.05;5.47;;;12.20;99.90;;;12.50;94.50;101400.63;5076555;28;20097;-72
2023/01/06 02:53:18;;;;;;;10.85;5.65;;;12.30;99.90;;;12.47;94.04;101400.66;5095071;28;20040;-72
2023/01/06 02:55:51;;;;;;;8.32;5.03;;;12.30;99.90;;;12.47;93.90;101405.06;5076911;28;20113;-72
2023/01/06 02:58:30;;;;;;;8.52;5.07;;;12.30;99.90;;;12.45;94.01;101394.47;5076787;28;20093;-73
2023/01/06 03:01:04;;;;;;;8.10;5.57;;;12.20;99.90;;;12.38;93.82;101390.06;5076812;28;20078;-72
2023/01/06 03:03:38;;;;;;;6.45;4.93;;;12.30;99.90;;;12.41;93.78;101405.06;5076694;28;20048;-72
2023/01/06 03:06:12;;;;;;;8.45;5.03;;;12.20;99.90;;;12.46;93.80;101393.59;5093587;28;20140;-73
2023/01/06 03:08:41;;;;;;;9.80;6.30;;;12.20;99.90;;;12.39;93.71;101375.00;5076700;28;20067;-72
2023/01/06 03:11:09;;;;;;;9.52;4.97;;;12.30;99.90;;;12.46;93.67;101377.66;5093341;28;20052;-72
2023/01/06 03:13:44;;;;;;;7.68;4.97;;;12.30;99.90;;;12.42;93.81;101386.53;5076476;28;20452;-73
2023/01/06 03:16:14;;;;;;;11.52;5.45;;;12.20;99.90;;;12.40;94.13;101393.59;5076224;28;20052;-72
2023/01/06 03:18:45;;;;;;;9.73;5.32;;;12.20;99.90;;;12.23;94.15;101368.03;5093273;28;20040;-73
2023/01/06 03:21:21;;;;;;;10.02;5.05;;;12.20;99.90;;;12.29;94.29;101386.56;5076355;28;20063;-72
2023/01/06 03:23:49;;;;;;;10.57;5.25;;;12.20;99.90;;;12.24;94.44;101360.06;5076227;28;20482;-72
2023/01/06 03:26:18;;;;;;;11.27;5.47;;;12.10;99.90;;;12.27;94.50;101341.47;5094648;28;20040;-72
2023/01/06 03:28:47;;;;;;;9.43;5.32;;;12.10;99.90;;;12.27;94.83;101348.56;5076144;28;20105;-72
2023/01/06 03:31:27;;;;;;;13.65;5.97;;;12.10;99.90;;;12.27;94.71;101352.06;5076138;28;20040;-72
2023/01/06 03:34:07;;;;;;;8.05;4.80;;;12.10;99.90;;;12.31;95.03;101368.88;5094347;28;20044;-73
2023/01/06 03:36:49;;;;;;;8.60;5.07;;;12.10;99.90;;;12.15;95.13;101338.88;5093018;28;20383;-72
2023/01/06 03:39:23;;;;;;;9.45;5.07;;;12.10;99.90;;;12.32;95.18;101357.38;5076052;28;20044;-72
2023/01/06 03:45:15;;;;;;;7.43;5.43;;;12.10;99.90;;;12.38;95.26;101376.81;5076001;28;20128;-72
2023/01/06 03:47:52;;;;;;;10.02;6.10;;;12.20;99.90;;;12.40;95.39;101368.84;5075963;28;20448;-72
2023/01/06 03:50:30;;;;;;;7.97;5.03;;;12.20;99.90;;;12.38;95.25;101368.84;5075828;28;20401;-73
2023/01/06 03:53:14;;;;;;;9.82;5.60;;;12.20;99.90;;;12.42;95.58;101348.50;5075815;28;20056;-72
2023/01/06 03:55:47;;;;;;;9.13;5.10;;;12.20;99.90;;;12.34;95.43;101367.09;5092569;28;20051;-72
2023/01/06 03:58:17;;;;;;;9.15;5.32;;;12.20;99.90;;;12.38;95.38;101344.09;5092633;28;20454;-72
2023/01/06 04:00:47;;;;;;;9.30;5.07;;;12.20;99.90;;;11.97;95.37;101271.75;5075752;28;20463;-72
2023/01/06 04:03:16;;;;;;;7.82;5.70;;;12.20;99.90;;;12.41;95.46;101352.91;5075724;28;20467;-73
2023/01/06 04:05:47;;;;;;;10.35;4.75;;;12.20;99.90;;;12.35;95.89;101362.69;5075588;28;20050;-73
2023/01/06 04:08:15;;;;;;;8.23;5.20;;;12.10;99.90;;;12.35;96.04;101352.06;5094010;28;20043;-73
2023/01/06 04:10:44;;;;;;;9.05;5.57;;;12.10;99.90;;;12.32;96.17;101352.06;5075164;28;20090;-73
2023/01/06 04:13:11;;;;;;;9.45;5.68;;;12.10;99.90;;;12.27;96.38;101345.91;5092192;28;20052;-73
2023/01/06 04:15:39;;;;;;;8.18;5.25;;;12.10;99.90;;;12.38;96.36;101312.25;5075008;28;20498;-73
2023/01/06 04:18:09;;;;;;;10.98;5.20;;;12.10;99.90;;;12.40;95.96;101324.63;5092525;28;20052;-72
2023/01/06 04:20:39;;;;;;;7.97;4.88;;;12.10;99.90;;;12.34;95.78;101326.41;5075527;28;20370;-73
2023/01/06 04:23:25;;;;;;;10.32;5.35;;;12.20;99.90;;;12.37;95.75;101329.03;5075428;28;20079;-73
2023/01/06 04:25:53;;;;;;;6.65;4.70;;;12.10;99.90;;;12.39;95.68;101319.31;5093741;28;20135;-72
2023/01/06 04:28:34;;;;;;;5.60;4.78;;;12.20;99.90;;;12.36;95.74;101336.13;5075357;28;20093;-72
2023/01/06 04:31:03;;;;;;;6.25;4.82;;;12.20;99.90;;;12.33;95.90;101311.41;5092136;28;20489;-73
2023/01/06 04:33:34;;;;;;;7.55;4.55;;;12.10;99.90;;;12.39;95.65;101312.25;5075203;28;20593;-73
2023/01/06 04:36:06;;;;;;;8.75;4.95;;;12.20;99.90;;;12.42;95.87;101332.56;5092128;28;20044;-73
2023/01/06 04:38:37;;;;;;;5.57;4.50;;;12.20;99.90;;;12.37;95.70;101323.75;5075307;28;20078;-72
2023/01/06 04:41:05;;;;;;;7.47;4.78;;;12.20;99.90;;;12.39;96.03;101317.53;5093048;28;20036;-73
2023/01/06 04:43:34;;;;;;;6.18;4.72;;;12.20;99.90;;;12.40;96.55;101314.03;5092986;28;20040;-72
2023/01/06 04:46:02;;;;;;;5.45;4.80;;;12.20;99.90;;;12.38;97.14;101299.00;5093252;28;20032;-73
2023/01/06 04:48:31;;;;;;;11.68;5.03;;;12.20;99.90;;;12.34;97.78;101315.81;5093476;28;20123;-73
2023/01/06 04:51:03;;;;;;;5.97;5.10;;;12.20;99.90;;;12.25;98.85;101282.22;5093201;28;20080;-72
2023/01/06 04:53:34;;;;;;;5.93;4.97;;;12.10;99.90;;;12.27;99.56;101279.59;5092849;28;20036;-73
2023/01/06 04:56:05;;;;;;;6.00;5.00;;;12.10;99.90;;;12.22;99.91;101287.56;5092864;28;20509;-72
2023/01/06 04:58:34;;;;;;;8.82;5.00;;;12.00;99.90;;;12.26;100.00;101272.50;5092920;28;20478;-72
2023/01/06 05:01:04;;;;;;;7.97;5.18;;;12.00;99.90;;;12.11;100.00;101294.69;5093945;28;20036;-72
2023/01/06 05:03:33;;;;;;;6.35;4.60;;;12.00;99.90;;;12.17;100.00;101288.47;5097207;28;20052;-72
2023/01/06 05:06:03;;;;;;;7.05;4.97;;;12.00;99.90;;;12.19;100.00;101276.97;5096810;28;20036;-72
2023/01/06 05:08:32;;;;;;;8.00;5.10;;;12.00;99.90;;;12.18;100.00;101269.00;5096770;28;20043;-72
2023/01/06 05:11:01;;;;;;;7.65;4.72;;;12.00;99.90;;;11.22;100.00;101135.97;5097283;28;20110;-72
2023/01/06 05:13:32;;;;;;;6.28;4.78;;;12.00;99.90;;;11.98;100.00;101271.75;5096069;28;20072;-72
2023/01/06 05:16:01;;;;;;;6.57;4.90;;;11.80;99.90;;;12.04;100.00;101270.88;5096147;28;20071;-72
2023/01/06 05:18:29;;;;;;;6.28;5.00;;;11.80;99.90;;;12.07;100.00;101262.88;5096205;28;20101;-72
2023/01/06 05:20:58;;;;;;;8.07;5.40;;;11.80;99.90;;;12.07;100.00;101269.06;5095989;28;20123;-72
2023/01/06 05:23:26;;;;;;;6.60;4.90;;;11.90;99.90;;;12.09;100.00;101258.47;5095869;28;20552;-72
2023/01/06 05:25:55;;;;;;;5.43;4.60;;;11.90;99.90;;;11.82;100.00;101216.16;5096359;28;20039;-72
2023/01/06 05:28:23;;;;;;;8.18;5.10;;;11.90;99.90;;;11.94;100.00;101247.91;5096051;28;20044;-72
2023/01/06 05:30:53;;;;;;;9.10;4.72;;;11.90;99.90;;;12.05;100.00;101254.06;5095936;28;20464;-73
2023/01/06 05:33:21;;;;;;;8.15;4.93;;;11.90;99.90;;;12.05;100.00;101283.22;5096144;28;20069;-73
2023/01/06 05:35:50;;;;;;;7.55;4.90;;;11.80;99.90;;;12.07;100.00;101270.84;5095638;28;20139;-73
2023/01/06 05:38:18;;;;;;;6.28;5.05;;;11.80;99.90;;;11.88;100.00;101250.59;5095420;28;20044;-73
2023/01/06 05:40:51;;;;;;;6.57;4.60;;;11.80;99.90;;;12.06;100.00;101274.41;5095521;28;20086;-72
2023/01/06 05:43:19;;;;;;;7.50;4.30;;;11.80;99.90;;;12.01;100.00;101262.91;5095486;28;20066;-72
2023/01/06 05:45:48;;;;;;;8.55;4.72;;;11.80;99.90;;;12.04;100.00;101257.59;5095741;28;20040;-72
2023/01/06 05:48:18;;;;;;;5.90;5.13;;;11.80;99.90;;;11.99;100.00;101260.25;5095720;28;20062;-72
2023/01/06 05:50:46;;;;;;;6.18;4.60;;;11.80;99.90;;;11.93;100.00;101273.53;5095427;28;20040;-72
2023/01/06 05:53:15;;;;;;;7.15;4.68;;;11.70;99.90;;;11.98;100.00;101281.50;5095249;28;20496;-72
2023/01/06 05:55:43;;;;;;;7.40;5.47;;;11.80;99.90;;;11.98;100.00;101268.22;5095287;28;20151;-72
2023/01/06 05:58:11;;;;;;;5.90;4.55;;;11.80;99.90;;;11.96;100.00;101275.31;5095251;28;20066;-72
2023/01/06 06:00:40;;;;;;;7.18;4.90;;;11.80;99.90;;;12.00;100.00;101285.00;5095213;28;20036;-73
2023/01/06 06:03:08;;;;;;;8.15;5.13;;;11.80;99.90;;;12.06;100.00;101298.25;5077291;28;20036;-72
2023/01/06 06:05:38;;;;;;;7.82;5.00;;;11.80;99.90;;;11.30;100.00;101152.72;5095152;28;20048;-72
2023/01/06 06:08:06;;;;;;;6.67;4.77;;;11.80;99.90;;;11.93;100.00;101276.19;5095148;28;20495;-72
2023/01/06 06:10:36;;;;;;;9.23;5.07;;;11.70;99.90;;;11.99;100.00;101284.13;5094172;28;20065;-72
2023/01/06 06:13:04;;;;;;;6.03;5.40;;;11.80;99.90;;;11.94;100.00;101291.22;5094045;28;20359;-72
2023/01/06 06:15:33;;;;;;;5.28;4.68;;;11.70;99.90;;;12.08;100.00;101307.09;5094763;28;20052;-72
2023/01/06 06:18:02;;;;;;;6.05;5.50;;;11.80;99.90;;;12.07;100.00;101311.50;5094973;28;20123;-72
2023/01/06 06:20:31;;;;;;;7.53;5.55;;;11.80;99.90;;;12.01;100.00;101332.72;5094937;28;20036;-72
2023/01/06 06:23:00;;;;;;;6.35;5.75;;;11.80;99.90;;;11.61;100.00;101255.03;5095455;28;20044;-73
2023/01/06 06:25:29;;;;;;;8.15;6.15;;;11.80;99.90;;;12.06;100.00;101335.38;5094954;28;20149;-74
2023/01/06 06:27:58;;;;;;;7.03;6.15;;;11.80;99.90;;;12.12;100.00;101353.88;5095471;28;20079;-73
2023/01/06 06:30:27;;;;;;;7.80;5.70;;;11.80;99.90;;;12.13;100.00;101358.31;5076896;28;20677;-74
2023/01/06 06:32:55;;;;;;;7.57;5.68;;;11.90;99.90;;;12.08;100.00;101320.34;5094699;28;20110;-73
2023/01/06 06:35:23;;;;;;;6.75;5.57;;;11.80;99.90;;;11.96;100.00;101352.19;5095010;28;20485;-74
2023/01/06 06:37:54;;;;;;;9.07;5.80;;;11.80;99.90;;;11.99;100.00;101357.47;5095022;28;20047;-74
2023/01/06 06:40:23;;;;;;;7.03;5.60;;;11.80;99.90;;;11.87;100.00;101341.59;5095006;28;20040;-74
2023/01/06 06:42:52;;;;;;;10.73;5.20;;;11.70;99.90;;;11.97;100.00;101361.88;5095240;28;20093;-74
2023/01/06 06:45:20;;;;;;;12.68;5.07;;;11.70;99.90;;;11.93;100.00;101362.78;5095220;28;20033;-74
2023/01/06 06:47:49;;;;;;;10.43;5.03;;;11.70;99.90;;;11.93;100.00;101362.78;5094757;28;20560;-74
2023/01/06 06:50:17;;;;;;;11.98;5.53;;;11.70;99.90;;;11.98;100.00;101367.19;5094387;28;20040;-74
2023/01/06 06:52:45;;;;;;;8.80;4.97;;;11.70;99.90;;;11.81;100.00;101331.03;5094183;28;20119;-74
2023/01/06 06:55:14;;;;;;;14.13;5.05;;;11.70;99.90;;;11.90;100.00;101363.69;5093018;28;20118;-74
2023/01/06 06:57:44;;;;;;;14.75;5.55;;;11.70;99.90;;;11.90;100.00;101363.69;5094132;28;20118;-74
2023/01/06 07:00:13;;;;;;;17.58;5.57;;;11.70;99.90;;;11.89;100.00;101356.59;5094330;28;20390;-73
2023/01/06 07:02:43;;;;;;;18.35;6.15;;;11.80;99.90;;;12.01;100.00;101374.25;5094020;28;20523;-73
2023/01/06 07:05:11;;;;;;;21.35;6.18;;;11.80;99.90;;;12.03;100.00;101391.03;5094175;28;20071;-73
2023/01/06 07:07:39;;;;;;;16.67;5.28;;;11.80;99.90;;;12.00;100.00;101381.31;5094318;28;20040;-73
2023/01/06 07:10:11;;;;;;;22.45;6.63;;;11.80;99.90;;;12.09;100.00;101383.09;5094098;28;20132;-73
2023/01/06 07:12:39;;;;;;;20.02;5.78;;;11.90;99.90;;;12.18;100.00;101401.63;5093826;28;20398;-73
2023/01/06 07:15:11;;;;;;;19.13;6.32;;;11.90;99.90;;;12.22;100.00;101403.38;5093447;28;20060;-72
2023/01/06 07:17:40;;;;;;;28.55;6.85;;;12.00;99.90;;;12.27;100.00;101391.00;5093722;28;20101;-72
2023/01/06 07:20:10;;;;;;;21.13;6.65;;;12.10;99.90;;;12.38;100.00;101418.38;5093918;28;20048;-73
2023/01/06 07:22:39;;;;;;;24.58;6.57;;;12.20;99.90;;;12.47;100.00;101428.94;5093805;28;20036;-73
2023/01/06 07:25:09;;;;;;;27.17;6.45;;;12.20;99.90;;;12.52;100.00;101437.78;5092942;28;20048;-73
2023/01/06 07:27:38;;;;;;;29.95;7.90;;;12.30;99.90;;;12.50;100.00;101428.94;5093300;28;20398;-73
2023/01/06 07:30:09;;;;;;;27.85;6.75;;;12.30;99.90;;;12.43;100.00;101416.56;5093423;28;20037;-73
2023/01/06 07:32:38;;;;;;;39.72;8.00;;;12.30;99.90;;;12.52;100.00;101435.13;5093395;28;20044;-72
2023/01/06 07:35:07;;;;;;;34.05;8.05;;;12.30;99.90;;;11.98;100.00;101342.47;5093189;28;20068;-73
2023/01/06 07:37:36;;;;;;;29.33;7.60;;;12.30;99.90;;;12.55;100.00;101457.22;5093234;28;20060;-73
2023/01/06 07:40:05;;;;;;;38.50;7.70;;;12.30;99.90;;;12.52;100.00;101446.59;5093210;28;20374;-73
2023/01/06 07:42:36;;;;;;;27.83;7.55;;;12.30;99.90;;;12.41;99.75;101421.00;5093237;28;20065;-73
2023/01/06 07:45:06;;;;;;;38.63;7.93;;;12.30;99.90;;;12.52;99.33;101457.22;5092170;28;20051;-73
2023/01/06 07:47:36;;;;;;;28.55;7.93;;;12.30;99.90;;;12.69;98.79;101457.19;5093729;28;20085;-73
2023/01/06 07:50:06;;;;;;;33.97;7.95;;;12.40;99.90;;;12.80;98.24;101465.97;5093130;28;20089;-72
2023/01/06 07:52:34;;;;;;;30.20;7.40;;;12.50;99.90;;;12.65;97.00;101458.97;5093320;28;20048;-73
2023/01/06 07:55:03;;;;;;;25.70;7.80;;;12.50;99.90;;;12.61;96.15;101467.84;5092869;28;20075;-73
2023/01/06 07:57:32;;;;;;;25.73;6.60;;;12.40;99.90;;;12.40;94.66;101456.38;5092933;28;20130;-72
2023/01/06 08:00:00;;;;;;;20.20;5.70;;;12.20;99.90;;;12.47;93.98;101466.97;5093010;28;20051;-72
2023/01/06 08:02:40;;;;;;;15.65;5.63;;;12.20;99.90;;;12.46;92.70;101462.56;5092961;28;20450;-72
2023/01/06 08:05:09;;;;;;;20.42;6.20;;;12.20;99.90;;;12.47;92.23;101471.41;5092885;28;20405;-72
2023/01/06 08:07:37;;;;;;;12.93;5.20;;;12.20;99.90;;;12.40;91.57;101478.50;5093290;28;20040;-72
2023/01/06 08:10:08;;;;;;;15.73;5.32;;;12.20;99.90;;;12.31;90.21;101467.03;5092792;28;20524;-70
2023/01/06 08:12:36;;;;;;;;;;;12.10;99.90;;;12.31;88.92;101478.50;5093242;28;20070;-71
2023/01/06 08:15:06;;;;;;;14.15;5.32;;;12.10;99.90;;;12.33;88.31;101482.03;5092564;28;19958;-70
2023/01/06 08:17:35;;;;;;;14.13;4.60;;;12.10;99.90;;;12.36;87.45;101484.69;5092792;28;20040;-71
2023/01/06 08:20:06;;;;;;;11.95;5.18;;;12.10;99.90;;;11.82;86.83;101380.47;5074530;28;20051;-71
2023/01/06 08:22:35;;;;;;;10.68;5.05;;;12.20;99.90;;;12.53;86.35;101487.31;5092672;28;20547;-72
2023/01/06 08:25:03;;;;;;;12.50;5.60;;;12.30;99.90;;;12.71;85.36;101505.84;5092688;28;20063;-73
2023/01/06 08:27:31;;;;;;;12.73;5.72;;;12.50;99.90;;;12.98;84.70;101516.38;5092928;28;20087;-72
2023/01/06 08:30:00;;;;;;;14.98;5.47;;;12.70;99.90;;;12.98;83.76;101473.88;5092555;28;20131;-71
2023/01/06 08:32:28;;;;;;;20.23;5.40;;;13.00;99.90;;;12.94;82.79;101420.78;5074688;28;20063;-72
2023/01/06 08:34:57;;;;;;;11.75;4.93;;;13.30;99.90;;;13.90;81.34;101538.94;5073791;28;20044;-73
2023/01/06 08:37:26;;;;;;;13.95;4.90;;;13.60;99.90;;;14.27;79.77;101551.03;5092613;28;20453;-76
2023/01/06 08:39:57;;;;;;;12.23;4.88;;;14.00;99.90;;;14.60;77.96;101556.06;5092558;28;20055;-75
2023/01/06 08:42:25;;;;;;;13.23;4.90;;;14.30;99.90;;;14.84;76.65;101557.63;5092899;28;20032;-75
2023/01/06 08:44:53;;;;;;;11.85;4.93;;;14.60;99.90;;;15.17;75.32;101565.22;5092510;28;20101;-73
2023/01/06 08:47:22;;;;;;;8.82;4.40;;;14.90;99.90;;;15.50;74.26;101578.16;5092594;28;20029;-77
2023/01/06 08:49:50;;;;;;;15.93;5.05;;;15.20;99.90;;;15.86;73.37;101580.31;5092612;28;20044;-76
2023/01/06 08:52:19;;;;;;;15.95;5.00;;;15.60;99.90;;;15.51;71.90;101499.03;5092896;28;20122;-79
2023/01/06 08:54:49;;;;;;;11.73;4.82;;;15.80;99.90;;;16.00;70.48;101583.66;5093188;28;20049;-74
2023/01/06 08:57:17;;;;;;;14.60;4.70;;;15.80;99.90;;;15.95;70.34;101565.97;5074636;28;20560;-76
2023/01/06 08:59:46;;;;;;;12.18;5.20;;;15.80;99.90;;;15.98;70.07;101580.13;5074181;28;20048;-78
2023/01/06 09:02:14;;;;;;;10.63;4.45;;;15.80;99.90;;;16.05;69.90;101588.91;5092381;28;20043;-75
2023/01/06 09:04:43;;;;;;;12.52;4.57;;;15.80;99.90;;;15.96;68.42;101576.63;5092236;28;20151;-72
2023/01/06 09:07:11;;;;;;;14.30;5.00;;;15.80;99.90;;;15.87;68.01;101584.72;5092216;28;20500;-71
2023/01/06 09:09:40;;;;;;;10.75;5.00;;;15.70;99.90;;;15.82;67.55;101591.03;5092232;28;20123;-71
2023/01/06 09:12:10;;;;;;;15.15;4.80;;;15.50;99.90;;;15.81;67.75;101591.97;5092226;28;20040;-74
2023/01/06 09:14:38;;;;;;;10.03;4.77;;;15.50;99.90;;;16.04;68.08;101582.72;5091994;28;20044;-72
2023/01/06 09:17:07;;;;;;;8.20;4.35;;;15.80;99.90;;;16.27;67.55;101588.56;5092441;28;20048;-78
2023/01/06 09:19:35;;;;;;;13.13;4.97;;;16.00;99.90;;;16.54;66.39;101587.25;5092427;28;20095;-73
2023/01/06 09:22:03;;;;;;;15.40;4.80;;;16.30;99.90;;;16.69;65.81;101591.44;5092104;28;20084;-70
2023/01/06 09:24:32;;;;;;;12.57;5.20;;;16.50;99.90;;;17.03;65.50;101588.09;5092023;28;20072;-74
2023/01/06 09:27:00;;;;;;;10.68;4.03;;;16.80;99.90;;;17.34;64.76;101591.06;5092311;28;20115;-73
2023/01/06 09:29:30;;;;;;;10.48;4.55;;;17.10;99.90;;;17.59;63.12;101605.75;5092199;28;20452;-73
2023/01/06 09:31:59;;;;;;;10.10;4.57;;;17.30;99.90;;;17.93;61.92;101606.75;5092341;28;20032;-77
2023/01/06 09:34:27;;;;;;;12.23;4.35;;;17.70;99.90;;;17.91;60.78;101599.66;5091819;28;20071;-75
2023/01/06 09:36:55;;;;;;;9.13;4.15;;;17.80;99.90;;;17.97;60.13;101610.22;5091953;28;20412;-74
2023/01/06 09:39:24;;;;;;;10.65;4.10;;;17.90;99.90;;;18.25;59.82;101618.50;5091847;28;20048;-74
2023/01/06 09:42:19;;;;;;;9.48;4.38;;;18.00;99.90;;;18.58;59.33;101631.13;5092359;28;20050;-73
2023/01/06 09:44:55;;;;;;;9.32;4.45;;;18.20;99.90;;;18.89;58.39;101638.31;5091831;28;20057;-64
2023/01/06 09:47:29;;;;;;;8.73;4.43;;;18.60;99.90;;;18.81;57.71;101610.81;5093623;28;20375;-63
2023/01/06 09:50:04;;;;;;;8.57;3.72;;;18.70;99.90;;;18.64;57.01;101553.25;5095747;28;20047;-62
2023/01/06 09:52:37;;;;;;;7.97;3.85;;;18.80;99.90;;;19.09;56.58;101634.22;5095453;28;20083;-63
2023/01/06 09:55:12;;;;;;;9.18;4.32;;;18.90;99.90;;;19.17;56.46;101642.94;5095354;28;20044;-64
2023/01/06 09:57:45;;;;;;;9.73;4.35;;;18.90;99.90;;;19.18;56.31;101642.03;5095190;28;20048;-63
2023/01/06 10:00:28;;;;;;;7.57;3.88;;;18.90;99.90;;;19.17;55.84;101635.78;5095403;28;20055;-63
2023/01/06 10:02:57;;;;;;;11.18;4.22;;;18.90;99.90;;;19.02;56.37;101630.84;5095593;28;20068;-64
2023/01/06 10:05:38;;;;;;;8.48;4.03;;;18.80;99.90;;;18.86;56.49;101630.38;5095154;28;20354;-63
2023/01/06 10:08:17;;;;;;;8.75;4.03;;;18.60;99.90;;;18.87;56.77;101632.09;5095842;28;20081;-65
2023/01/06 10:10:58;;;;;;;9.57;4.05;;;18.60;99.90;;;18.71;56.89;101636.13;5095276;28;20501;-62
2023/01/06 10:13:41;;;;;;;7.65;3.92;;;18.40;99.90;;;18.53;56.80;101641.94;5077162;28;20070;-63
2023/01/06 10:16:22;;;;;;;6.72;3.65;;;18.30;99.90;;;18.55;57.03;101645.47;5095141;28;20062;-62
2023/01/06 10:18:59;;;;;;;9.60;4.13;;;18.20;99.90;;;18.44;57.40;101647.53;5094897;28;20101;-63
2023/01/06 10:21:33;;;;;;;10.13;4.35;;;18.10;99.90;;;18.21;57.63;101643.59;5094864;28;20520;-62
2023/01/06 10:24:31;;;;;;;12.10;4.93;;;17.90;99.90;;;18.37;58.35;101655.72;5094847;28;20071;-62
2023/01/06 10:27:18;;;;;;;8.93;4.05;;;18.00;99.90;;;18.37;58.00;101661.94;5094544;28;20074;-62
2023/01/06 10:29:51;;;;;;;9.05;4.07;;;18.00;99.90;;;18.40;58.08;101650.28;5094605;28;20043;-63
2023/01/06 10:32:22;;;;;;;9.27;3.97;;;18.10;99.90;;;18.29;57.79;101657.69;5076965;28;20052;-63
2023/01/06 10:34:51;;;;;;;14.05;5.00;;;18.00;99.90;;;18.22;58.38;101653.38;5094555;28;20483;-63
2023/01/06 10:37:24;;;;;;;10.07;4.47;;;17.90;99.90;;;17.89;58.17;101633.59;5094842;28;20072;-62